sensor_id;sensor_type;location;lat;lon;timestamp;pressure;altitude;pressure_sealevel;temperature;humidity
48630;BME280;34426;52.180;4.462;2023-12-07T00:00:08;102095.34;;;0.91;100.00
48630;BME280;34426;52.180;4.462;2023-12-07T00:02:33;102084.19;;;0.84;100.00
48630;BME280;34426;52.180;4.462;2023-12-07T00:04:59;102087.13;;;0.75;100.00
48630;BME280;34426;52.180;4.462;2023-12-07T00:07:24;102088.84;;;0.68;100.00
48630;BME280;34426;52.180;4.462;2023-12-07T00:09:50;102089.72;;;0.68;100.00
48630;BME280;34426;52.180;4.462;2023-12-07T00:12:15;102082.47;;;0.67;100.00
48630;BME280;34426;52.180;4.462;2023-12-07T00:14:42;102072.00;;;0.62;100.00
48630;BME280;34426;52.180;4.462;2023-12-07T00:17:07;102076.97;;;0.59;100.00
48630;BME280;34426;52.180;4.462;2023-12-07T00:19:33;102083.69;;;0.56;100.00
48630;BME280;34426;52.180;4.462;2023-12-07T00:21:58;102085.06;;;0.52;100.00
48630;BME280;34426;52.180;4.462;2023-12-07T00:24:24;102079.22;;;0.55;100.00
48630;BME280;34426;52.180;4.462;2023-12-07T00:26:49;102078.00;;;0.50;100.00
48630;BME280;34426;52.180;4.462;2023-12-07T00:29:15;102074.41;;;0.41;100.00
48630;BME280;34426;52.180;4.462;2023-12-07T00:31:42;102077.50;;;0.38;100.00
48630;BME280;34426;52.180;4.462;2023-12-07T00:34:07;102076.63;;;0.46;100.00
48630;BME280;34426;52.180;4.462;2023-12-07T00:36:32;102072.88;;;0.39;100.00
48630;BME280;34426;52.180;4.462;2023-12-07T00:38:58;102073.72;;;0.39;100.00
48630;BME280;34426;52.180;4.462;2023-12-07T00:41:23;102064.44;;;0.40;100.00
48630;BME280;34426;52.180;4.462;2023-12-07T00:43:49;102079.41;;;0.38;100.00
48630;BME280;34426;52.180;4.462;2023-12-07T00:46:14;102074.75;;;0.30;100.00
48630;BME280;34426;52.180;4.462;2023-12-07T00:48:41;102077.34;;;0.31;100.00
48630;BME280;34426;52.180;4.462;2023-12-07T00:51:06;102072.00;;;0.30;100.00
48630;BME280;34426;52.180;4.462;2023-12-07T00:53:32;102077.50;;;0.22;100.00
48630;BME280;34426;52.180;4.462;2023-12-07T00:55:57;102076.09;;;0.18;100.00
48630;BME280;34426;52.180;4.462;2023-12-07T00:58:23;102079.22;;;0.23;100.00
48630;BME280;34426;52.180;4.462;2023-12-07T01:00:48;102078.88;;;0.26;100.00
48630;BME280;34426;52.180;4.462;2023-12-07T01:03:14;102073.03;;;0.29;100.00
48630;BME280;34426;52.180;4.462;2023-12-07T01:05:41;102070.13;;;0.30;100.00
48630;BME280;34426;52.180;4.462;2023-12-07T01:08:06;102078.19;;;0.32;100.00
48630;BME280;34426;52.180;4.462;2023-12-07T01:10:32;102075.97;;;0.36;100.00
48630;BME280;34426;52.180;4.462;2023-12-07T01:12:57;102078.53;;;0.37;100.00
48630;BME280;34426;52.180;4.462;2023-12-07T01:15:23;102075.97;;;0.36;100.00
48630;BME280;34426;52.180;4.462;2023-12-07T01:17:48;102075.13;;;0.43;100.00
48630;BME280;34426;52.180;4.462;2023-12-07T01:20:14;102076.47;;;0.47;100.00
48630;BME280;34426;52.180;4.462;2023-12-07T01:22:41;102074.41;;;0.41;100.00
48630;BME280;34426;52.180;4.462;2023-12-07T01:25:06;102080.78;;;0.33;100.00
48630;BME280;34426;52.180;4.462;2023-12-07T01:27:33;102084.38;;;0.34;100.00
48630;BME280;34426;52.180;4.462;2023-12-07T01:29:58;102086.47;;;0.40;100.00
48630;BME280;34426;52.180;4.462;2023-12-07T01:32:24;102084.88;;;0.46;100.00
48630;BME280;34426;52.180;4.462;2023-12-07T01:34:49;102082.31;;;0.44;100.00
48630;BME280;34426;52.180;4.462;2023-12-07T01:37:15;102072.84;;;0.47;100.00
48630;BME280;34426;52.180;4.462;2023-12-07T01:39:42;102077.19;;;0.41;100.00
48630;BME280;34426;52.180;4.462;2023-12-07T01:42:08;102078.91;;;0.42;100.00
48630;BME280;34426;52.180;4.462;2023-12-07T01:44:33;102069.59;;;0.43;100.00
48630;BME280;34426;52.180;4.462;2023-12-07T01:46:59;102065.63;;;0.46;100.00
48630;BME280;34426;52.180;4.462;2023-12-07T01:49:24;102074.75;;;0.46;100.00
48630;BME280;34426;52.180;4.462;2023-12-07T01:51:50;102071.66;;;0.41;100.00
48630;BME280;34426;52.180;4.462;2023-12-07T01:54:15;102062.69;;;0.55;100.00
48630;BME280;34426;52.180;4.462;2023-12-07T01:56:42;102073.53;;;0.49;100.00
48630;BME280;34426;52.180;4.462;2023-12-07T01:59:08;102074.06;;;0.52;100.00
48630;BME280;34426;52.180;4.462;2023-12-07T02:01:34;102068.19;;;0.47;100.00
48630;BME280;34426;52.180;4.462;2023-12-07T02:04:00;102078.19;;;0.48;100.00
48630;BME280;34426;52.180;4.462;2023-12-07T02:06:25;102081.28;;;0.45;100.00
48630;BME280;34426;52.180;4.462;2023-12-07T02:08:51;102073.69;;;0.47;100.00
48630;BME280;34426;52.180;4.462;2023-12-07T02:11:16;102077.16;;;0.49;100.00
48630;BME280;34426;52.180;4.462;2023-12-07T02:13:43;102074.75;;;0.54;100.00
48630;BME280;34426;52.180;4.462;2023-12-07T02:16:15;102072.34;;;0.59;100.00
48630;BME280;34426;52.180;4.462;2023-12-07T02:18:46;102077.66;;;0.61;100.00
48630;BME280;34426;52.180;4.462;2023-12-07T02:21:20;102074.22;;;0.67;100.00
48630;BME280;34426;52.180;4.462;2023-12-07T02:23:47;102065.28;;;0.73;100.00
48630;BME280;34426;52.180;4.462;2023-12-07T02:26:17;102066.81;;;0.76;100.00
48630;BME280;34426;52.180;4.462;2023-12-07T02:28:45;102069.56;;;0.76;100.00
48630;BME280;34426;52.180;4.462;2023-12-07T02:31:10;102078.53;;;0.78;100.00
48630;BME280;34426;52.180;4.462;2023-12-07T02:33:36;102077.44;;;0.87;100.00
48630;BME280;34426;52.180;4.462;2023-12-07T02:36:01;102074.69;;;0.87;100.00
48630;BME280;34426;52.180;4.462;2023-12-07T02:38:28;102075.75;;;0.86;100.00
48630;BME280;34426;52.180;4.462;2023-12-07T02:40:54;102075.78;;;0.78;100.00
48630;BME280;34426;52.180;4.462;2023-12-07T02:43:20;102073.88;;;0.78;100.00
48630;BME280;34426;52.180;4.462;2023-12-07T02:45:48;102073.03;;;0.78;100.00
48630;BME280;34426;52.180;4.462;2023-12-07T02:48:13;102071.13;;;0.70;100.00
48630;BME280;34426;52.180;4.462;2023-12-07T02:50:39;102066.31;;;0.72;100.00
48630;BME280;34426;52.180;4.462;2023-12-07T02:53:04;102070.91;;;0.88;100.00
48630;BME280;34426;52.180;4.462;2023-12-07T02:55:29;102074.34;;;0.98;100.00
48630;BME280;34426;52.180;4.462;2023-12-07T02:57:55;102077.28;;;0.96;100.00
48630;BME280;34426;52.180;4.462;2023-12-07T03:00:20;102077.63;;;0.93;100.00
48630;BME280;34426;52.180;4.462;2023-12-07T03:02:47;102080.91;;;0.89;100.00
48630;BME280;34426;52.180;4.462;2023-12-07T03:05:13;102080.53;;;1.00;100.00
48630;BME280;34426;52.180;4.462;2023-12-07T03:07:38;102088.81;;;1.00;100.00
48630;BME280;34426;52.180;4.462;2023-12-07T03:10:05;102083.97;;;1.02;100.00
48630;BME280;34426;52.180;4.462;2023-12-07T03:12:30;102079.69;;;0.99;100.00
48630;BME280;34426;52.180;4.462;2023-12-07T03:14:56;102079.84;;;0.98;100.00
48630;BME280;34426;52.180;4.462;2023-12-07T03:17:22;102072.78;;;0.95;100.00
48630;BME280;34426;52.180;4.462;2023-12-07T03:19:48;102075.91;;;0.92;100.00
48630;BME280;34426;52.180;4.462;2023-12-07T03:22:14;102070.91;;;0.96;100.00
48630;BME280;34426;52.180;4.462;2023-12-07T03:24:43;102069.53;;;0.92;100.00
48630;BME280;34426;52.180;4.462;2023-12-07T03:27:09;102072.09;;;0.93;100.00
48630;BME280;34426;52.180;4.462;2023-12-07T03:29:34;102072.97;;;0.94;100.00
48630;BME280;34426;52.180;4.462;2023-12-07T03:32:00;102071.59;;;0.90;100.00
48630;BME280;34426;52.180;4.462;2023-12-07T03:34:25;102070.38;;;0.92;100.00
48630;BME280;34426;52.180;4.462;2023-12-07T03:36:52;102072.44;;;0.98;100.00
48630;BME280;34426;52.180;4.462;2023-12-07T03:39:17;102064.72;;;0.94;100.00
48630;BME280;34426;52.180;4.462;2023-12-07T03:41:43;102072.78;;;1.04;100.00
48630;BME280;34426;52.180;4.462;2023-12-07T03:44:09;102069.16;;;1.03;100.00
48630;BME280;34426;52.180;4.462;2023-12-07T03:46:34;102060.56;;;1.06;100.00
48630;BME280;34426;52.180;4.462;2023-12-07T03:48:59;102060.56;;;1.06;100.00
48630;BME280;34426;52.180;4.462;2023-12-07T03:51:25;102062.28;;;1.07;100.00
48630;BME280;34426;52.180;4.462;2023-12-07T03:53:52;102063.28;;;1.22;100.00
48630;BME280;34426;52.180;4.462;2023-12-07T03:56:24;102061.88;;;1.26;100.00
48630;BME280;34426;52.180;4.462;2023-12-07T03:58:49;102068.72;;;1.30;100.00
48630;BME280;34426;52.180;4.462;2023-12-07T04:01:15;102054.66;;;1.25;100.00
48630;BME280;34426;52.180;4.462;2023-12-07T04:03:40;102059.84;;;1.20;100.00
48630;BME280;34426;52.180;4.462;2023-12-07T04:06:06;102065.69;;;1.17;100.00
48630;BME280;34426;52.180;4.462;2023-12-07T04:08:32;102063.28;;;1.22;100.00
48630;BME280;34426;52.180;4.462;2023-12-07T04:10:58;102063.44;;;1.21;100.00
48630;BME280;34426;52.180;4.462;2023-12-07T04:13:24;102065.50;;;1.27;100.00
48630;BME280;34426;52.180;4.462;2023-12-07T04:15:49;102063.63;;;1.19;100.00
48630;BME280;34426;52.180;4.462;2023-12-07T04:18:15;102071.03;;;1.19;100.00
48630;BME280;34426;52.180;4.462;2023-12-07T04:20:40;102062.75;;;1.19;100.00
48630;BME280;34426;52.180;4.462;2023-12-07T04:23:06;102055.88;;;1.15;100.00
48630;BME280;34426;52.180;4.462;2023-12-07T04:25:31;102057.81;;;1.06;100.00
48630;BME280;34426;52.180;4.462;2023-12-07T04:27:58;102059.34;;;1.09;100.00
48630;BME280;34426;52.180;4.462;2023-12-07T04:30:24;102055.72;;;1.16;100.00
48630;BME280;34426;52.180;4.462;2023-12-07T04:32:49;102054.88;;;1.08;100.00
48630;BME280;34426;52.180;4.462;2023-12-07T04:35:15;102052.97;;;1.08;100.00
48630;BME280;34426;52.180;4.462;2023-12-07T04:37:40;102051.25;;;1.07;100.00
48630;BME280;34426;52.180;4.462;2023-12-07T04:40:07;102053.69;;;1.02;100.00
48630;BME280;34426;52.180;4.462;2023-12-07T04:42:32;102046.78;;;0.98;100.00
48630;BME280;34426;52.180;4.462;2023-12-07T04:44:59;102051.28;;;0.91;100.00
48630;BME280;34426;52.180;4.462;2023-12-07T04:47:25;102051.47;;;0.89;100.00
48630;BME280;34426;52.180;4.462;2023-12-07T04:49:50;102051.78;;;0.94;100.00
48630;BME280;34426;52.180;4.462;2023-12-07T04:52:16;102060.91;;;0.95;100.00
48630;BME280;34426;52.180;4.462;2023-12-07T04:54:41;102054.03;;;0.99;100.00
48630;BME280;34426;52.180;4.462;2023-12-07T04:57:06;102053.31;;;1.05;100.00
48630;BME280;34426;52.180;4.462;2023-12-07T04:59:32;102059.69;;;1.06;100.00
48630;BME280;34426;52.180;4.462;2023-12-07T05:01:59;102069.84;;;1.05;100.00
48630;BME280;34426;52.180;4.462;2023-12-07T05:04:24;102063.31;;;0.98;100.00
48630;BME280;34426;52.180;4.462;2023-12-07T05:06:50;102065.03;;;0.99;100.00
48630;BME280;34426;52.180;4.462;2023-12-07T05:09:15;102058.84;;;0.97;100.00
48630;BME280;34426;52.180;4.462;2023-12-07T05:11:42;102052.31;;;0.98;100.00
48630;BME280;34426;52.180;4.462;2023-12-07T05:14:07;102050.94;;;0.94;100.00
48630;BME280;34426;52.180;4.462;2023-12-07T05:16:33;102046.97;;;0.88;100.00
48630;BME280;34426;52.180;4.462;2023-12-07T05:19:00;102054.03;;;0.99;100.00
48630;BME280;34426;52.180;4.462;2023-12-07T05:21:25;102051.97;;;1.01;100.00
48630;BME280;34426;52.180;4.462;2023-12-07T05:23:51;102048.16;;;1.02;100.00
48630;BME280;34426;52.180;4.462;2023-12-07T05:26:16;102045.94;;;0.97;100.00
48630;BME280;34426;52.180;4.462;2023-12-07T05:28:41;102054.38;;;0.96;100.00
48630;BME280;34426;52.180;4.462;2023-12-07T05:31:07;102047.50;;;0.92;100.00
48630;BME280;34426;52.180;4.462;2023-12-07T05:33:32;102043.19;;;0.97;100.00
48630;BME280;34426;52.180;4.462;2023-12-07T05:35:59;102041.63;;;0.95;100.00
48630;BME280;34426;52.180;4.462;2023-12-07T05:38:25;102037.69;;;0.97;100.00
48630;BME280;34426;52.180;4.462;2023-12-07T05:40:50;102039.41;;;0.90;100.00
48630;BME280;34426;52.180;4.462;2023-12-07T05:43:15;102037.22;;;0.86;100.00
48630;BME280;34426;52.180;4.462;2023-12-07T05:45:41;102035.50;;;0.85;100.00
48630;BME280;34426;52.180;4.462;2023-12-07T05:48:06;102037.91;;;0.80;100.00
48630;BME280;34426;52.180;4.462;2023-12-07T05:50:32;102030.16;;;0.75;100.00
48630;BME280;34426;52.180;4.462;2023-12-07T05:52:59;102036.88;;;0.73;100.00
48630;BME280;34426;52.180;4.462;2023-12-07T05:55:24;102032.06;;;0.66;100.00
48630;BME280;34426;52.180;4.462;2023-12-07T05:57:50;102026.75;;;0.65;100.00
48630;BME280;34426;52.180;4.462;2023-12-07T06:00:16;102031.91;;;0.68;100.00
48630;BME280;34426;52.180;4.462;2023-12-07T06:02:41;102034.47;;;0.61;100.00
48630;BME280;34426;52.180;4.462;2023-12-07T06:05:07;102040.00;;;0.61;100.00
48630;BME280;34426;52.180;4.462;2023-12-07T06:07:33;102035.84;;;0.57;100.00
48630;BME280;34426;52.180;4.462;2023-12-07T06:10:00;102045.50;;;0.45;100.00
48630;BME280;34426;52.180;4.462;2023-12-07T06:12:25;102043.78;;;0.44;100.00
48630;BME280;34426;52.180;4.462;2023-12-07T06:14:51;102050.69;;;0.40;100.00
48630;BME280;34426;52.180;4.462;2023-12-07T06:17:16;102037.28;;;0.37;100.00
48630;BME280;34426;52.180;4.462;2023-12-07T06:19:42;102039.69;;;0.32;100.00
48630;BME280;34426;52.180;4.462;2023-12-07T06:22:07;102042.44;;;0.32;100.00
48630;BME280;34426;52.180;4.462;2023-12-07T06:24:33;102039.31;;;0.27;100.00
48630;BME280;34426;52.180;4.462;2023-12-07T06:27:00;102044.84;;;0.35;100.00
48630;BME280;34426;52.180;4.462;2023-12-07T06:29:25;102044.84;;;0.43;100.00
48630;BME280;34426;52.180;4.462;2023-12-07T06:31:50;102037.09;;;0.39;100.00
48630;BME280;34426;52.180;4.462;2023-12-07T06:34:16;102040.03;;;0.37;100.00
48630;BME280;34426;52.180;4.462;2023-12-07T06:36:41;102038.13;;;0.38;100.00
48630;BME280;34426;52.180;4.462;2023-12-07T06:39:07;102037.25;;;0.29;100.00
48630;BME280;34426;52.180;4.462;2023-12-07T06:41:32;102034.50;;;0.29;100.00
48630;BME280;34426;52.180;4.462;2023-12-07T06:43:59;102034.84;;;0.18;100.00
48630;BME280;34426;52.180;4.462;2023-12-07T06:46:25;102038.28;;;0.28;100.00
48630;BME280;34426;52.180;4.462;2023-12-07T06:48:50;102042.44;;;0.32;100.00
48630;BME280;34426;52.180;4.462;2023-12-07T06:51:16;102037.94;;;0.31;100.00
48630;BME280;34426;52.180;4.462;2023-12-07T06:53:41;102046.91;;;0.33;100.00
48630;BME280;34426;52.180;4.462;2023-12-07T06:56:07;102038.66;;;0.41;100.00
48630;BME280;34426;52.180;4.462;2023-12-07T06:58:33;102039.00;;;0.38;100.00
48630;BME280;34426;52.180;4.462;2023-12-07T07:01:00;102031.25;;;0.42;100.00
48630;BME280;34426;52.180;4.462;2023-12-07T07:03:25;102033.16;;;0.41;100.00
48630;BME280;34426;52.180;4.462;2023-12-07T07:05:51;102036.06;;;0.40;100.00
48630;BME280;34426;52.180;4.462;2023-12-07T07:08:16;102038.97;;;0.46;100.00
48630;BME280;34426;52.180;4.462;2023-12-07T07:10:43;102035.00;;;0.49;100.00
48630;BME280;34426;52.180;4.462;2023-12-07T07:13:09;102037.06;;;0.47;100.00
48630;BME280;34426;52.180;4.462;2023-12-07T07:15:34;102035.53;;;0.44;100.00
48630;BME280;34426;52.180;4.462;2023-12-07T07:18:01;102032.44;;;0.39;100.00
48630;BME280;34426;52.180;4.462;2023-12-07T07:20:27;102033.16;;;0.41;100.00
48630;BME280;34426;52.180;4.462;2023-12-07T07:22:52;102036.41;;;0.37;100.00
48630;BME280;34426;52.180;4.462;2023-12-07T07:25:17;102028.31;;;0.35;100.00
48630;BME280;34426;52.180;4.462;2023-12-07T07:27:43;102024.19;;;0.39;100.00
48630;BME280;34426;52.180;4.462;2023-12-07T07:30:09;102024.88;;;0.41;100.00
48630;BME280;34426;52.180;4.462;2023-12-07T07:32:35;102031.59;;;0.39;100.00
48630;BME280;34426;52.180;4.462;2023-12-07T07:35:02;102032.09;;;0.34;100.00
48630;BME280;34426;52.180;4.462;2023-12-07T07:37:28;102035.56;;;0.36;100.00
48630;BME280;34426;52.180;4.462;2023-12-07T07:39:53;102043.47;;;0.31;100.00
48630;BME280;34426;52.180;4.462;2023-12-07T07:42:19;102045.53;;;0.37;100.00
48630;BME280;34426;52.180;4.462;2023-12-07T07:44:44;102048.28;;;0.37;100.00
48630;BME280;34426;52.180;4.462;2023-12-07T07:47:09;102036.22;;;0.30;100.00
48630;BME280;34426;52.180;4.462;2023-12-07T07:49:35;102050.00;;;0.30;100.00
48630;BME280;34426;52.180;4.462;2023-12-07T07:52:02;102049.31;;;0.28;100.00
48630;BME280;34426;52.180;4.462;2023-12-07T07:54:27;102042.44;;;0.32;100.00
48630;BME280;34426;52.180;4.462;2023-12-07T07:56:53;102035.56;;;0.36;100.00
48630;BME280;34426;52.180;4.462;2023-12-07T07:59:18;102036.06;;;0.31;100.00
48630;BME280;34426;52.180;4.462;2023-12-07T08:01:45;102035.22;;;0.39;100.00
48630;BME280;34426;52.180;4.462;2023-12-07T08:04:10;102034.88;;;0.42;100.00
48630;BME280;34426;52.180;4.462;2023-12-07T08:06:36;102044.84;;;0.43;100.00
48630;BME280;34426;52.180;4.462;2023-12-07T08:09:02;102042.91;;;0.44;100.00
48630;BME280;34426;52.180;4.462;2023-12-07T08:11:28;102046.34;;;0.46;100.00
48630;BME280;34426;52.180;4.462;2023-12-07T08:13:53;102039.66;;;0.48;100.00
48630;BME280;34426;52.180;4.462;2023-12-07T08:16:19;102048.94;;;0.47;100.00
48630;BME280;34426;52.180;4.462;2023-12-07T08:18:44;102051.34;;;0.58;100.00
48630;BME280;34426;52.180;4.462;2023-12-07T08:21:18;102047.56;;;0.59;100.00
48630;BME280;34426;52.180;4.462;2023-12-07T08:23:44;102044.97;;;0.58;100.00
48630;BME280;34426;52.180;4.462;2023-12-07T08:26:11;102038.94;;;0.71;100.00
48630;BME280;34426;52.180;4.462;2023-12-07T08:28:36;102038.78;;;0.72;100.00
48630;BME280;34426;52.180;4.462;2023-12-07T08:31:02;102040.66;;;0.72;100.00
48630;BME280;34426;52.180;4.462;2023-12-07T08:33:27;102041.69;;;0.71;100.00
48630;BME280;34426;52.180;4.462;2023-12-07T08:35:52;102039.47;;;0.74;100.00
48630;BME280;34426;52.180;4.462;2023-12-07T08:38:18;102042.38;;;0.81;100.00
48630;BME280;34426;52.180;4.462;2023-12-07T08:40:43;102040.66;;;0.72;100.00
48630;BME280;34426;52.180;4.462;2023-12-07T08:43:10;102035.16;;;0.72;100.00
48630;BME280;34426;52.180;4.462;2023-12-07T08:45:38;102027.59;;;0.74;100.00
48630;BME280;34426;52.180;4.462;2023-12-07T08:48:04;102024.50;;;0.69;100.00
48630;BME280;34426;52.180;4.462;2023-12-07T08:50:29;102009.69;;;0.78;100.00
48630;BME280;34426;52.180;4.462;2023-12-07T08:52:55;102015.38;;;0.76;100.00
48630;BME280;34426;52.180;4.462;2023-12-07T08:55:20;102017.94;;;0.86;100.00
48630;BME280;34426;52.180;4.462;2023-12-07T08:57:46;102018.22;;;0.91;100.00
48630;BME280;34426;52.180;4.462;2023-12-07T09:00:13;102020.47;;;0.95;100.00
48630;BME280;34426;52.180;4.462;2023-12-07T09:02:39;102017.69;;;1.04;100.00
48630;BME280;34426;52.180;4.462;2023-12-07T09:05:05;102024.06;;;1.04;100.00
48630;BME280;34426;52.180;4.462;2023-12-07T09:07:31;102020.25;;;1.05;100.00
48630;BME280;34426;52.180;4.462;2023-12-07T09:09:56;102021.13;;;1.06;100.00
48630;BME280;34426;52.180;4.462;2023-12-07T09:12:22;102016.84;;;1.03;100.00
48630;BME280;34426;52.180;4.462;2023-12-07T09:14:47;102022.00;;;0.98;100.00
48630;BME280;34426;52.180;4.462;2023-12-07T09:17:14;102029.56;;;1.04;100.00
48630;BME280;34426;52.180;4.462;2023-12-07T09:19:40;102023.41;;;0.94;100.00
48630;BME280;34426;52.180;4.462;2023-12-07T09:22:05;102020.97;;;0.99;100.00
48630;BME280;34426;52.180;4.462;2023-12-07T09:24:30;102022.16;;;1.05;100.00
48630;BME280;34426;52.180;4.462;2023-12-07T09:26:56;102022.34;;;1.03;100.00
48630;BME280;34426;52.180;4.462;2023-12-07T09:29:22;102018.53;;;1.12;100.00
48630;BME280;34426;52.180;4.462;2023-12-07T09:31:48;102019.22;;;1.14;100.00
48630;BME280;34426;52.180;4.462;2023-12-07T09:34:14;102015.41;;;1.15;100.00
48630;BME280;34426;52.180;4.462;2023-12-07T09:36:40;102013.03;;;1.12;100.00
48630;BME280;34426;52.180;4.462;2023-12-07T09:39:05;101997.16;;;1.14;100.00
48630;BME280;34426;52.180;4.462;2023-12-07T09:41:31;101997.31;;;1.21;100.00
48630;BME280;34426;52.180;4.462;2023-12-07T09:43:56;101991.78;;;1.29;100.00
48630;BME280;34426;52.180;4.462;2023-12-07T09:46:22;101986.28;;;1.21;100.00
48630;BME280;34426;52.180;4.462;2023-12-07T09:48:49;101987.06;;;1.38;100.00
48630;BME280;34426;52.180;4.462;2023-12-07T09:51:16;101981.22;;;1.32;100.00
48630;BME280;34426;52.180;4.462;2023-12-07T09:53:43;101979.16;;;1.34;100.00
48630;BME280;34426;52.180;4.462;2023-12-07T09:56:10;101975.31;;;1.44;100.00
48630;BME280;34426;52.180;4.462;2023-12-07T09:58:35;101972.56;;;1.44;100.00
48630;BME280;34426;52.180;4.462;2023-12-07T10:01:01;101971.88;;;1.42;100.00
48630;BME280;34426;52.180;4.462;2023-12-07T10:03:27;101968.72;;;1.53;100.00
48630;BME280;34426;52.180;4.462;2023-12-07T10:05:54;101975.94;;;1.54;100.00
48630;BME280;34426;52.180;4.462;2023-12-07T10:08:27;101976.94;;;1.61;100.00
48630;BME280;34426;52.180;4.462;2023-12-07T10:11:01;101975.38;;;1.66;100.00
48630;BME280;34426;52.180;4.462;2023-12-07T10:13:28;101972.34;;;1.76;100.00
48630;BME280;34426;52.180;4.462;2023-12-07T10:16:05;101969.00;;;1.66;100.00
48630;BME280;34426;52.180;4.462;2023-12-07T10:18:31;101969.75;;;1.75;100.00
48630;BME280;34426;52.180;4.462;2023-12-07T10:20:56;101969.16;;;1.87;100.00
48630;BME280;34426;52.180;4.462;2023-12-07T10:23:22;101971.63;;;1.82;100.00
48630;BME280;34426;52.180;4.462;2023-12-07T10:25:48;101958.44;;;1.92;100.00
48630;BME280;34426;52.180;4.462;2023-12-07T10:28:16;101954.75;;;2.00;100.00
48630;BME280;34426;52.180;4.462;2023-12-07T10:30:42;101960.47;;;1.98;100.00
48630;BME280;34426;52.180;4.462;2023-12-07T10:33:07;101958.44;;;1.92;100.00
48630;BME280;34426;52.180;4.462;2023-12-07T10:35:33;101949.97;;;1.94;100.00
48630;BME280;34426;52.180;4.462;2023-12-07T10:38:03;101939.94;;;2.01;100.00
48630;BME280;34426;52.180;4.462;2023-12-07T10:40:28;101932.44;;;2.10;100.00
48630;BME280;34426;52.180;4.462;2023-12-07T10:42:57;101923.88;;;2.05;100.00
48630;BME280;34426;52.180;4.462;2023-12-07T10:45:24;101919.69;;;2.09;100.00
48630;BME280;34426;52.180;4.462;2023-12-07T10:47:51;101912.81;;;2.05;100.00
48630;BME280;34426;52.180;4.462;2023-12-07T10:50:21;101906.81;;;2.01;100.00
48630;BME280;34426;52.180;4.462;2023-12-07T10:52:51;101912.09;;;2.11;100.00
48630;BME280;34426;52.180;4.462;2023-12-07T10:55:20;101903.63;;;2.12;100.00
48630;BME280;34426;52.180;4.462;2023-12-07T10:57:46;101901.13;;;2.17;100.00
48630;BME280;34426;52.180;4.462;2023-12-07T11:00:14;101898.84;;;2.21;100.00
48630;BME280;34426;52.180;4.462;2023-12-07T11:02:41;101890.13;;;2.32;100.00
48630;BME280;34426;52.180;4.462;2023-12-07T11:05:08;101893.84;;;2.39;100.00
48630;BME280;34426;52.180;4.462;2023-12-07T11:07:41;101887.16;;;2.33;100.00
48630;BME280;34426;52.180;4.462;2023-12-07T11:10:12;101887.84;;;2.36;100.00
48630;BME280;34426;52.180;4.462;2023-12-07T11:12:46;101876.41;;;2.39;100.00
48630;BME280;34426;52.180;4.462;2023-12-07T11:15:14;101870.81;;;2.32;100.00
48630;BME280;34426;52.180;4.462;2023-12-07T11:17:54;101881.75;;;2.40;100.00
48630;BME280;34426;52.180;4.462;2023-12-07T11:20:20;101880.91;;;2.40;100.00
48630;BME280;34426;52.180;4.462;2023-12-07T11:22:46;101873.09;;;2.43;100.00
48630;BME280;34426;52.180;4.462;2023-12-07T11:25:12;101878.63;;;2.43;100.00
48630;BME280;34426;52.180;4.462;2023-12-07T11:27:37;101865.00;;;2.42;100.00
48630;BME280;34426;52.180;4.462;2023-12-07T11:30:03;101870.03;;;2.38;100.00
48630;BME280;34426;52.180;4.462;2023-12-07T11:32:30;101872.06;;;2.44;100.00
48630;BME280;34426;52.180;4.462;2023-12-07T11:35:02;101869.28;;;2.29;100.00
48630;BME280;34426;52.180;4.462;2023-12-07T11:38:00;101862.25;;;2.42;100.00
48630;BME280;34426;52.180;4.462;2023-12-07T11:40:26;101852.34;;;2.47;100.00
48630;BME280;34426;52.180;4.462;2023-12-07T11:42:52;101833.31;;;2.52;100.00
48630;BME280;34426;52.180;4.462;2023-12-07T11:45:35;101828.53;;;2.46;100.00
48630;BME280;34426;52.180;4.462;2023-12-07T11:48:13;101826.84;;;2.45;100.00
48630;BME280;34426;52.180;4.462;2023-12-07T11:50:55;101829.22;;;2.48;100.00
48630;BME280;34426;52.180;4.462;2023-12-07T11:53:21;101820.53;;;2.51;100.00
48630;BME280;34426;52.180;4.462;2023-12-07T11:55:47;101824.84;;;2.54;100.00
48630;BME280;34426;52.180;4.462;2023-12-07T11:58:12;101813.41;;;2.57;100.00
48630;BME280;34426;52.180;4.462;2023-12-07T12:00:39;101806.22;;;2.62;100.00
48630;BME280;34426;52.180;4.462;2023-12-07T12:03:05;101793.41;;;2.55;100.00
48630;BME280;34426;52.180;4.462;2023-12-07T12:05:32;101786.13;;;2.68;100.00
48630;BME280;34426;52.180;4.462;2023-12-07T12:07:58;101786.69;;;2.64;100.00
48630;BME280;34426;52.180;4.462;2023-12-07T12:10:23;101769.75;;;2.67;100.00
48630;BME280;34426;52.180;4.462;2023-12-07T12:12:49;101761.84;;;2.64;100.00
48630;BME280;34426;52.180;4.462;2023-12-07T12:15:14;101759.88;;;2.58;100.00
48630;BME280;34426;52.180;4.462;2023-12-07T12:17:40;101756.78;;;2.67;100.00
48630;BME280;34426;52.180;4.462;2023-12-07T12:20:06;101748.19;;;2.77;100.00
48630;BME280;34426;52.180;4.462;2023-12-07T12:22:33;101736.41;;;2.68;100.00
48630;BME280;34426;52.180;4.462;2023-12-07T12:25:01;101726.03;;;2.71;100.00
48630;BME280;34426;52.180;4.462;2023-12-07T12:27:26;101724.84;;;2.80;100.00
48630;BME280;34426;52.180;4.462;2023-12-07T12:29:52;101722.47;;;2.77;100.00
48630;BME280;34426;52.180;4.462;2023-12-07T12:32:17;101736.53;;;2.60;100.00
48630;BME280;34426;52.180;4.462;2023-12-07T12:34:43;101726.28;;;2.54;100.00
48630;BME280;34426;52.180;4.462;2023-12-07T12:37:08;101726.78;;;2.43;100.00
48630;BME280;34426;52.180;4.462;2023-12-07T12:39:35;101717.25;;;2.46;100.00
48630;BME280;34426;52.180;4.462;2023-12-07T12:42:02;101717.56;;;2.36;100.00
48630;BME280;34426;52.180;4.462;2023-12-07T12:44:27;101714.88;;;2.43;100.00